Terminal Aerodrome Forecast
Issued by NWS

Home | Current Version | Previous Version | Text Only | Print | Product List | Glossary On
Versions: 1 2 3 4 5 6 7 8 9 10 11 12 13 14 15 16 17 18 19
000
FTUS45 KFGZ 201700 RRA
TAFSEZ
TAF
KSEZ 201744Z 2018/2118 VRB05KT P6SM SCT100 SCT200
     FM210300 05009KT P6SM BKN090 BKN200=

USA.gov is the U.S. government's official web portal to all federal, state and local government web resources and services.